Time;durP1;ratioP1;P1;durP2;ratioP2;P2;SDS_P1;SDS_P2;PMS_P1;PMS_P2;Temp;Humidity;BMP_temperature;BMP_pressure;BME280_temperature;BME280_humidity;BME280_pressure;Samples;Min_cycle;Max_cycle;Signal;HPM_P1;HPM_P2
2021/03/28 00:02:14;;;;;;;17.60;8.93;;;3.50;99.90;;;;;;4392479;28;657622;-89
2021/03/28 00:05:05;;;;;;;19.13;8.23;;;3.50;99.90;;;;;;4390290;28;656514;-89
2021/03/28 00:07:54;;;;;;;16.90;8.83;;;3.70;99.90;;;;;;4435200;28;656902;-89
2021/03/28 00:10:42;;;;;;;20.23;9.03;;;3.70;99.90;;;;;;4432548;28;656542;-89
2021/03/28 00:13:29;;;;;;;17.90;9.70;;;3.70;99.90;;;;;;4396517;28;657100;-89
2021/03/28 00:16:17;;;;;;;17.67;9.23;;;3.50;99.90;;;;;;4423736;28;656507;-89
2021/03/28 00:19:05;;;;;;;17.27;9.20;;;3.60;99.90;;;;;;4409050;28;656559;-88
2021/03/28 00:21:53;;;;;;;21.13;10.07;;;3.50;99.90;;;;;;4409029;28;656663;-89
2021/03/28 00:24:49;;;;;;;22.58;10.43;;;3.50;99.90;;;;;;4417762;28;657838;-89
2021/03/28 00:27:45;;;;;;;24.27;12.87;;;3.50;99.90;;;;;;4411962;28;657523;-89
2021/03/28 00:30:35;;;;;;;21.70;11.23;;;3.50;99.90;;;;;;4414483;28;657467;-89
2021/03/28 00:33:24;;;;;;;27.77;13.40;;;3.50;99.90;;;;;;4419419;28;657530;-90
2021/03/28 00:36:14;;;;;;;26.27;12.50;;;3.50;99.90;;;;;;4424286;28;657937;-89
2021/03/28 00:39:01;;;;;;;26.10;13.00;;;3.50;99.90;;;;;;4398017;28;658139;-89
2021/03/28 00:42:03;;;;;;;30.73;14.77;;;3.50;99.90;;;;;;4405046;28;658218;-89
2021/03/28 00:44:56;;;;;;;32.80;14.20;;;3.50;99.90;;;;;;4409733;28;657486;-89
2021/03/28 00:47:46;;;;;;;27.83;13.27;;;3.60;99.90;;;;;;4411735;28;657722;-89
2021/03/28 00:50:35;;;;;;;24.90;12.80;;;3.60;99.90;;;;;;4403172;28;657349;-89
2021/03/28 00:53:36;;;;;;;26.37;12.97;;;3.50;99.90;;;;;;4392181;28;657585;-89
2021/03/28 00:56:26;;;;;;;24.67;11.67;;;3.50;99.90;;;;;;4422138;28;657564;-89
2021/03/28 00:59:19;;;;;;;23.77;11.97;;;3.60;99.90;;;;;;4412937;28;658367;-89
2021/03/28 01:02:14;;;;;;;22.03;10.70;;;3.50;99.90;;;;;;4388861;28;657693;-89
2021/03/28 01:05:40;;;;;;;21.50;10.57;;;3.50;99.90;;;;;;4401817;28;657589;-89
2021/03/28 01:08:29;;;;;;;20.03;9.57;;;3.50;99.90;;;;;;4322817;28;657565;-88
2021/03/28 01:11:24;;;;;;;18.63;9.47;;;3.60;99.90;;;;;;4360338;28;656629;-88
2021/03/28 01:14:20;;;;;;;17.97;9.00;;;3.60;99.90;;;;;;4348198;28;656705;-89
2021/03/28 01:17:37;;;;;;;20.43;8.47;;;3.60;99.90;;;;;;4346920;28;656202;-89
2021/03/28 01:20:41;;;;;;;16.30;8.50;;;3.70;99.90;;;;;;4330642;28;656337;-88
2021/03/28 01:23:35;;;;;;;28.57;11.93;;;3.70;99.90;;;;;;4327761;28;656587;-88
2021/03/28 01:26:37;;;;;;;21.80;10.53;;;3.70;99.90;;;;;;4325577;28;658102;-90
2021/03/28 01:29:29;;;;;;;20.97;10.57;;;3.70;99.90;;;;;;4351972;28;657361;-89
2021/03/28 01:32:23;;;;;;;26.57;11.70;;;3.70;99.90;;;;;;4325797;28;657799;-89
2021/03/28 01:35:18;;;;;;;22.90;10.60;;;3.70;99.90;;;;;;4339242;28;658033;-88
2021/03/28 01:38:06;;;;;;;21.07;10.33;;;3.60;99.90;;;;;;4336520;28;657762;-89
2021/03/28 01:40:55;;;;;;;24.43;11.10;;;3.60;99.90;;;;;;4352953;28;657555;-89
2021/03/28 01:43:49;;;;;;;27.03;12.67;;;3.50;99.90;;;;;;4339095;28;657631;-88
2021/03/28 01:46:44;;;;;;;27.57;13.10;;;3.50;99.90;;;;;;4328929;28;657547;-89
2021/03/28 01:49:53;;;;;;;27.90;12.37;;;3.60;99.90;;;;;;4420111;28;657558;-88
2021/03/28 01:52:42;;;;;;;25.93;12.73;;;3.60;99.90;;;;;;4407733;28;657586;-88
2021/03/28 01:55:32;;;;;;;25.07;12.07;;;3.60;99.90;;;;;;4403846;28;657600;-89
2021/03/28 01:58:27;;;;;;;25.63;12.60;;;3.60;99.90;;;;;;4424605;28;658097;-89
2021/03/28 02:01:22;;;;;;;22.63;11.97;;;3.60;99.90;;;;;;4415850;28;657780;-89
2021/03/28 02:04:20;;;;;;;27.60;12.80;;;3.60;99.90;;;;;;4397986;28;657696;-89
2021/03/28 02:07:16;;;;;;;27.73;11.20;;;3.60;99.90;;;;;;4379339;28;657431;-89
2021/03/28 02:10:11;;;;;;;29.80;13.60;;;3.70;99.90;;;;;;4413370;28;657497;-89
2021/03/28 02:13:00;;;;;;;31.43;12.80;;;3.70;99.90;;;;;;4396084;28;658372;-89
2021/03/28 02:15:49;;;;;;;32.53;14.03;;;3.70;99.90;;;;;;4441540;28;658185;-89
2021/03/28 02:18:59;;;;;;;31.37;13.60;;;3.70;99.90;;;;;;4388816;28;657488;-89
2021/03/28 02:22:01;;;;;;;28.77;12.83;;;3.70;99.90;;;;;;4388173;28;657287;-89
2021/03/28 02:24:52;;;;;;;24.87;12.77;;;3.70;99.90;;;;;;4418983;28;658379;-89
2021/03/28 02:27:43;;;;;;;25.93;13.03;;;3.70;99.90;;;;;;4409869;28;658698;-90
2021/03/28 02:30:32;;;;;;;24.80;12.50;;;3.70;99.90;;;;;;4398723;28;659253;-89
2021/03/28 02:33:21;;;;;;;25.43;12.60;;;3.70;99.90;;;;;;4397864;28;658192;-89
2021/03/28 02:36:33;;;;;;;31.93;13.23;;;3.70;99.90;;;;;;4420086;28;658001;-89
2021/03/28 02:39:25;;;;;;;28.93;14.30;;;3.80;99.90;;;;;;4324581;28;657984;-89
2021/03/28 02:42:16;;;;;;;28.27;13.70;;;3.80;99.90;;;;;;4339258;28;657589;-89
2021/03/28 02:45:08;;;;;;;30.80;13.37;;;3.70;99.90;;;;;;4330616;28;657269;-89
2021/03/28 02:48:33;;;;;;;29.10;13.13;;;3.70;99.90;;;;;;4336629;28;658210;-88
2021/03/28 02:51:32;;;;;;;32.33;14.83;;;3.80;99.90;;;;;;4343440;28;657686;-89
2021/03/28 02:54:53;;;;;;;29.67;14.33;;;3.60;99.90;;;;;;4346392;28;657809;-89
2021/03/28 02:57:50;;;;;;;29.10;13.50;;;3.40;99.90;;;;;;4338726;28;658206;-89
2021/03/28 03:00:42;;;;;;;28.93;13.20;;;3.20;99.90;;;;;;4347184;28;657817;-89
2021/03/28 03:03:50;;;;;;;22.10;12.00;;;3.00;99.90;;;;;;4338056;28;657871;-89
2021/03/28 03:06:50;;;;;;;26.60;11.90;;;3.00;99.90;;;;;;4335449;28;657175;-89
2021/03/28 03:09:48;;;;;;;26.77;12.67;;;3.00;99.90;;;;;;4336386;28;657819;-89
2021/03/28 03:12:42;;;;;;;28.47;13.60;;;3.00;99.90;;;;;;4338336;28;657750;-88
2021/03/28 03:15:34;;;;;;;31.23;14.57;;;3.00;99.90;;;;;;4324363;28;658362;-88
2021/03/28 03:19:11;;;;;;;26.37;12.23;;;3.00;99.90;;;;;;4343104;28;657308;-88
2021/03/28 03:22:38;;;;;;;26.70;12.27;;;2.90;99.90;;;;;;4392388;28;657456;-89
2021/03/28 03:26:13;;;;;;;24.27;10.67;;;2.80;99.90;;;;;;4320152;28;657846;-88
2021/03/28 03:29:44;;;;;;;24.47;11.00;;;2.70;99.90;;;;;;4307992;28;657494;-89
2021/03/28 03:32:47;;;;;;;22.52;10.60;;;2.60;99.90;;;;;;4271366;29;657797;-88
2021/03/28 03:35:40;;;;;;;21.53;10.00;;;2.50;99.90;;;;;;4264147;29;657732;-89
2021/03/28 03:38:58;;;;;;;22.07;10.63;;;2.40;99.90;;;;;;4286276;29;657681;-88
2021/03/28 03:41:54;;;;;;;22.52;10.00;;;2.40;99.90;;;;;;4282882;29;658104;-89
2021/03/28 03:45:33;;;;;;;21.53;10.30;;;2.40;99.90;;;;;;4276383;29;657594;-88
2021/03/28 03:48:26;;;;;;;26.17;11.53;;;2.30;99.90;;;;;;4218494;29;657683;-88
2021/03/28 03:51:46;;;;;;;22.20;10.47;;;2.20;99.90;;;;;;4208509;29;657764;-88
2021/03/28 03:54:46;;;;;;;27.17;11.80;;;2.20;99.90;;;;;;4217742;29;657480;-89
2021/03/28 03:57:39;;;;;;;23.40;10.73;;;2.20;99.90;;;;;;4203718;29;658169;-89
2021/03/28 04:00:27;;;;;;;23.27;11.05;;;2.30;99.90;;;;;;4220099;29;657508;-85
2021/03/28 04:03:16;;;;;;;22.00;9.97;;;2.30;99.90;;;;;;4222630;29;657842;-85
2021/03/28 04:06:32;;;;;;;18.13;9.67;;;2.30;99.90;;;;;;4284664;28;656713;-84
2021/03/28 04:09:22;;;;;;;16.90;9.27;;;2.20;99.90;;;;;;4307262;28;656732;-85
2021/03/28 04:12:24;;;;;;;18.43;8.57;;;2.20;99.90;;;;;;4326823;28;657185;-84
2021/03/28 04:15:20;;;;;;;22.13;9.20;;;2.10;99.90;;;;;;4298234;28;656583;-84
2021/03/28 04:18:29;;;;;;;19.13;8.30;;;2.10;99.90;;;;;;4343759;28;656890;-85
2021/03/28 04:21:23;;;;;;;24.80;8.23;;;2.10;99.90;;;;;;4304636;28;656713;-84
2021/03/28 04:24:25;;;;;;;19.47;7.73;;;2.20;99.90;;;;;;4346001;28;656486;-83
2021/03/28 04:27:40;;;;;;;15.57;7.00;;;2.10;99.90;;;;;;4319738;28;656620;-83
2021/03/28 04:30:36;;;;;;;18.43;7.30;;;2.20;99.90;;;;;;4291746;28;657197;-84
2021/03/28 04:33:31;;;;;;;13.97;6.50;;;2.30;99.90;;;;;;4309260;28;656647;-84
2021/03/28 04:36:21;;;;;;;15.93;7.50;;;2.20;99.90;;;;;;4286260;28;656659;-84
2021/03/28 04:39:38;;;;;;;16.67;7.03;;;2.20;99.90;;;;;;4345818;28;656967;-84
2021/03/28 04:42:49;;;;;;;18.77;6.77;;;2.30;99.90;;;;;;4303243;28;656915;-83
2021/03/28 04:46:09;;;;;;;15.27;7.53;;;2.20;99.90;;;;;;4277022;29;656465;-84
2021/03/28 04:49:04;;;;;;;18.33;7.47;;;2.30;99.90;;;;;;4206670;29;657579;-84
2021/03/28 04:52:23;;;;;;;18.63;8.00;;;2.30;99.90;;;;;;4228168;29;656939;-83
2021/03/28 04:55:24;;;;;;;13.97;7.30;;;2.30;99.90;;;;;;4235249;29;656818;-83
2021/03/28 04:58:21;;;;;;;16.67;8.27;;;2.30;99.90;;;;;;4234959;29;657120;-83
2021/03/28 05:01:21;;;;;;;19.73;9.10;;;2.30;99.90;;;;;;4245204;29;656827;-84
2021/03/28 05:04:25;;;;;;;20.37;8.90;;;2.30;99.90;;;;;;4272041;29;657187;-84
2021/03/28 05:07:45;;;;;;;24.77;9.87;;;2.30;99.90;;;;;;4291119;29;656918;-83
2021/03/28 05:10:55;;;;;;;25.30;9.70;;;2.30;99.90;;;;;;4293751;29;656879;-83
2021/03/28 05:14:14;;;;;;;24.53;10.57;;;2.30;99.90;;;;;;4310526;29;656887;-83
2021/03/28 05:17:42;;;;;;;22.10;10.27;;;2.30;99.90;;;;;;4277980;29;657748;-84
2021/03/28 05:20:50;;;;;;;19.73;9.07;;;2.40;99.90;;;;;;4281328;29;657426;-84
2021/03/28 05:24:11;;;;;;;22.27;9.23;;;2.50;99.90;;;;;;4300581;29;656527;-84
2021/03/28 05:27:21;;;;;;;18.23;7.27;;;2.50;99.90;;;;;;4423353;28;656869;-84
2021/03/28 05:30:27;;;;;;;20.57;7.13;;;2.50;99.90;;;;;;4395585;28;656466;-85
2021/03/28 05:33:31;;;;;;;17.13;6.83;;;2.60;99.90;;;;;;4404478;28;657153;-84
2021/03/28 05:36:41;;;;;;;19.13;7.70;;;2.70;99.90;;;;;;4395113;28;656429;-84
2021/03/28 05:39:56;;;;;;;12.77;6.50;;;2.70;99.90;;;;;;4396963;28;656752;-84
2021/03/28 05:43:21;;;;;;;17.80;6.75;;;2.80;99.90;;;;;;4328695;28;657093;-84
2021/03/28 05:46:19;;;;;;;18.50;7.00;;;2.90;99.90;;;;;;4324175;28;656907;-85
2021/03/28 05:49:14;;;;;;;14.60;6.93;;;3.00;99.90;;;;;;4330028;28;656889;-85
2021/03/28 05:52:34;;;;;;;22.90;8.60;;;3.00;99.90;;;;;;4338655;28;656576;-84
2021/03/28 05:55:32;;;;;;;19.27;9.40;;;3.00;99.90;;;;;;4332344;28;656398;-84
2021/03/28 05:58:38;;;;;;;20.08;9.63;;;2.90;99.90;;;;;;4327004;28;656655;-85
2021/03/28 06:01:36;;;;;;;25.50;11.00;;;2.90;99.90;;;;;;4323335;28;657315;-84
2021/03/28 06:04:59;;;;;;;22.90;11.57;;;2.90;99.90;;;;;;4324888;28;657642;-84
2021/03/28 06:08:20;;;;;;;21.80;11.35;;;3.00;99.90;;;;;;4276161;29;657445;-84
2021/03/28 06:11:46;;;;;;;26.10;12.17;;;3.10;99.90;;;;;;4322745;28;657663;-84
2021/03/28 06:14:39;;;;;;;22.40;12.23;;;3.10;99.90;;;;;;4308960;29;657404;-84
2021/03/28 06:17:28;;;;;;;23.50;11.20;;;3.20;99.90;;;;;;4284687;29;658295;-84
2021/03/28 06:20:52;;;;;;;24.27;12.83;;;3.20;99.90;;;;;;4291805;29;658261;-85
2021/03/28 06:24:21;;;;;;;28.80;12.83;;;3.20;99.90;;;;;;4277285;29;657598;-84
2021/03/28 06:27:42;;;;;;;25.73;13.10;;;3.10;99.90;;;;;;4274440;29;657922;-85
2021/03/28 06:30:58;;;;;;;28.53;13.43;;;3.20;99.90;;;;;;4285164;29;657315;-84
2021/03/28 06:34:38;;;;;;;25.53;13.13;;;3.20;99.90;;;;;;4307497;29;658204;-84
2021/03/28 06:37:59;;;;;;;32.13;14.77;;;3.20;99.90;;;;;;4219898;29;658060;-84
2021/03/28 06:41:47;;;;;;;24.77;13.63;;;3.50;99.90;;;;;;4215497;29;657639;-84
2021/03/28 06:45:06;;;;;;;22.80;9.40;;;3.70;99.90;;;;;;4166676;29;657788;-84
2021/03/28 06:48:32;;;;;;;26.17;13.27;;;3.90;99.90;;;;;;4193740;29;656765;-84
2021/03/28 06:51:33;;;;;;;27.47;13.30;;;3.90;99.90;;;;;;4210202;29;657688;-84
2021/03/28 06:54:48;;;;;;;27.70;13.40;;;3.90;99.90;;;;;;4210161;29;657889;-83
2021/03/28 06:58:12;;;;;;;29.27;14.80;;;4.10;99.90;;;;;;4184135;29;658060;-83
2021/03/28 07:01:51;;;;;;;23.10;11.30;;;4.30;99.90;;;;;;4207994;29;658310;-83
2021/03/28 07:04:55;;;;;;;24.77;12.10;;;4.40;99.90;;;;;;4274843;29;658113;-84
2021/03/28 07:08:16;;;;;;;23.67;13.53;;;4.60;99.90;;;;;;4253210;29;658129;-83
2021/03/28 07:11:51;;;;;;;26.33;11.90;;;4.50;99.90;;;;;;4209396;29;657671;-83
2021/03/28 07:15:19;;;;;;;20.73;10.00;;;4.70;99.90;;;;;;4263988;29;657881;-84
2021/03/28 07:18:44;;;;;;;16.73;8.27;;;4.80;99.90;;;;;;4273575;29;657910;-83
2021/03/28 07:21:50;;;;;;;12.70;7.67;;;5.10;99.90;;;;;;4316333;28;657377;-83
2021/03/28 07:25:07;;;;;;;12.00;5.90;;;5.20;99.90;;;;;;4332205;28;656398;-83
2021/03/28 07:28:30;;;;;;;9.33;5.10;;;5.10;99.90;;;;;;4325229;28;656317;-83
2021/03/28 07:31:46;;;;;;;14.20;5.90;;;4.80;99.90;;;;;;4313229;28;655380;-83
2021/03/28 07:35:00;;;;;;;9.53;4.60;;;4.70;99.90;;;;;;4325390;28;657004;-84
2021/03/28 07:38:25;;;;;;;10.37;4.80;;;4.90;99.90;;;;;;4340444;28;655651;-83
2021/03/28 07:41:53;;;;;;;8.27;3.80;;;5.10;99.90;;;;;;4321051;28;656683;-85
2021/03/28 07:45:20;;;;;;;6.97;3.87;;;5.20;99.90;;;;;;4342050;28;655956;-85
2021/03/28 07:48:50;;;;;;;12.60;4.87;;;5.00;99.90;;;;;;4359416;28;655484;-85
2021/03/28 07:51:59;;;;;;;5.80;3.03;;;5.00;99.90;;;;;;4402839;28;656060;-86
2021/03/28 07:55:18;;;;;;;10.13;5.27;;;5.00;99.90;;;;;;4410983;28;656186;-84
2021/03/28 07:58:29;;;;;;;8.48;4.72;;;5.30;99.90;;;;;;4412659;28;656455;-85
2021/03/28 08:01:43;;;;;;;11.23;5.27;;;5.50;99.90;;;;;;4413900;28;655618;-85
2021/03/28 08:05:12;;;;;;;9.27;5.97;;;5.40;99.90;;;;;;4406449;28;656342;-85
2021/03/28 08:08:00;;;;;;;14.23;6.07;;;5.70;99.90;;;;;;4423546;28;655960;-86
2021/03/28 08:11:12;;;;;;;12.60;7.13;;;5.90;99.90;;;;;;4421007;28;656875;-85
2021/03/28 08:14:35;;;;;;;9.83;6.10;;;6.20;99.90;;;;;;4362422;28;656582;-85
2021/03/28 08:17:43;;;;;;;11.47;7.73;;;6.50;99.90;;;;;;4339077;28;655621;-85
2021/03/28 08:20:37;;;;;;;14.67;8.00;;;6.50;99.90;;;;;;4348031;28;656876;-84
2021/03/28 08:24:02;;;;;;;12.67;7.53;;;6.50;99.90;;;;;;4351659;28;656894;-84
2021/03/28 08:27:00;;;;;;;14.37;8.23;;;6.70;99.90;;;;;;4352477;28;656618;-83
2021/03/28 08:30:16;;;;;;;13.53;8.20;;;6.80;99.90;;;;;;4361408;28;656950;-84
2021/03/28 08:33:32;;;;;;;15.53;8.63;;;6.90;99.90;;;;;;4361924;28;656495;-84
2021/03/28 08:36:38;;;;;;;13.20;7.33;;;7.10;99.90;;;;;;4345214;28;657014;-84
2021/03/28 08:39:39;;;;;;;13.40;6.37;;;7.10;99.90;;;;;;4356578;28;657001;-83
2021/03/28 08:42:38;;;;;;;13.07;6.73;;;7.60;99.90;;;;;;4350085;28;657083;-83
2021/03/28 08:45:30;;;;;;;14.23;7.17;;;7.70;99.90;;;;;;4356501;28;657077;-83
2021/03/28 08:48:46;;;;;;;11.30;6.25;;;7.70;99.90;;;;;;4347302;28;657152;-84
2021/03/28 08:52:05;;;;;;;14.80;7.60;;;7.50;99.90;;;;;;4350702;28;656557;-83
2021/03/28 08:54:58;;;;;;;12.50;7.30;;;7.10;99.90;;;;;;4387222;28;656568;-84
2021/03/28 08:57:52;;;;;;;21.15;9.20;;;7.00;99.90;;;;;;4416395;28;657050;-83
2021/03/28 09:00:41;;;;;;;15.53;9.30;;;6.80;99.90;;;;;;4392091;28;657288;-83
2021/03/28 09:03:54;;;;;;;16.13;8.63;;;6.70;99.90;;;;;;4401832;28;656769;-84
2021/03/28 09:06:57;;;;;;;17.80;9.70;;;6.70;99.90;;;;;;4405440;28;657494;-84
2021/03/28 09:10:00;;;;;;;17.30;8.40;;;6.90;99.90;;;;;;4416691;28;656196;-83
2021/03/28 09:13:16;;;;;;;14.83;8.40;;;7.40;99.90;;;;;;4394413;28;656367;-84
2021/03/28 09:16:11;;;;;;;13.57;7.17;;;7.40;99.90;;;;;;4411890;28;656376;-85
2021/03/28 09:19:24;;;;;;;20.37;11.30;;;7.30;99.90;;;;;;4413854;28;656541;-84
2021/03/28 09:22:16;;;;;;;16.97;7.93;;;7.50;99.90;;;;;;4400123;28;657395;-85
2021/03/28 09:25:05;;;;;;;13.40;8.20;;;7.60;99.90;;;;;;4414272;28;656887;-85
2021/03/28 09:27:59;;;;;;;16.07;7.73;;;7.80;99.90;;;;;;4403620;28;656527;-85
2021/03/28 09:30:55;;;;;;;16.40;8.73;;;7.80;99.90;;;;;;4426872;28;657102;-85
2021/03/28 09:33:53;;;;;;;11.73;6.60;;;7.70;99.90;;;;;;4431647;28;656304;-85
2021/03/28 09:36:46;;;;;;;11.93;6.23;;;7.80;99.90;;;;;;4401554;28;656739;-85
2021/03/28 09:39:54;;;;;;;14.47;6.50;;;7.90;99.90;;;;;;4410779;28;657026;-86
2021/03/28 09:42:54;;;;;;;14.10;6.63;;;7.60;99.90;;;;;;4415278;28;655963;-85
2021/03/28 09:45:59;;;;;;;9.07;5.47;;;7.90;99.90;;;;;;4398187;28;656507;-85
2021/03/28 09:49:22;;;;;;;11.30;5.70;;;8.20;99.90;;;;;;4398859;28;656244;-85
2021/03/28 09:52:27;;;;;;;12.10;4.60;;;8.60;99.90;;;;;;4408484;28;657510;-85
2021/03/28 09:55:29;;;;;;;9.97;5.40;;;8.50;99.90;;;;;;4404072;28;656202;-85
2021/03/28 09:58:46;;;;;;;10.30;5.63;;;9.00;99.70;;;;;;4412725;28;655873;-85
2021/03/28 10:01:48;;;;;;;11.67;5.30;;;8.30;98.20;;;;;;4401404;28;656778;-85
2021/03/28 10:05:00;;;;;;;10.93;4.83;;;7.80;98.80;;;;;;4395787;28;657692;-85
2021/03/28 10:07:53;;;;;;;8.90;4.73;;;8.20;99.10;;;;;;4378071;28;656697;-85
2021/03/28 10:10:54;;;;;;;9.77;5.33;;;8.70;99.90;;;;;;4398729;28;656639;-86
2021/03/28 10:14:04;;;;;;;7.80;5.13;;;8.50;96.60;;;;;;4402277;28;655730;-85
2021/03/28 10:17:12;;;;;;;7.43;4.03;;;8.40;97.00;;;;;;4402056;28;656017;-87
2021/03/28 10:20:03;;;;;;;9.23;4.40;;;8.40;95.30;;;;;;4394637;28;655777;-85
2021/03/28 10:23:01;;;;;;;9.10;4.33;;;8.70;96.10;;;;;;4392217;28;656123;-84
2021/03/28 10:25:56;;;;;;;12.17;5.30;;;9.50;94.60;;;;;;4393169;28;655363;-85
2021/03/28 10:29:10;;;;;;;9.93;4.87;;;9.10;93.30;;;;;;4396817;28;656771;-85
2021/03/28 10:32:01;;;;;;;9.83;5.20;;;9.20;93.70;;;;;;4392784;28;655523;-85
2021/03/28 10:35:19;;;;;;;11.77;4.60;;;9.20;93.70;;;;;;4387064;28;656375;-85
2021/03/28 10:38:41;;;;;;;10.77;5.43;;;9.00;93.10;;;;;;4396214;28;657456;-85
2021/03/28 10:41:40;;;;;;;8.67;4.67;;;9.20;92.10;;;;;;4395866;28;656936;-85
2021/03/28 10:44:46;;;;;;;8.90;4.80;;;8.80;91.60;;;;;;4382480;28;655259;-85
2021/03/28 10:48:03;;;;;;;12.47;5.13;;;8.60;91.80;;;;;;4388744;28;655378;-88
2021/03/28 10:51:27;;;;;;;11.27;5.27;;;8.30;92.00;;;;;;4326927;28;657576;-85
2021/03/28 10:54:52;;;;;;;9.80;5.30;;;8.40;92.40;;;;;;4313100;28;657523;-85
2021/03/28 10:58:05;;;;;;;10.20;4.90;;;8.40;91.40;;;;;;4283090;29;656334;-85
2021/03/28 11:01:16;;;;;;;10.47;5.13;;;8.40;91.70;;;;;;4310688;29;656876;-85
2021/03/28 11:04:40;;;;;;;13.27;5.33;;;8.70;91.80;;;;;;4292107;29;656894;-85
2021/03/28 11:08:03;;;;;;;9.77;5.10;;;9.30;91.90;;;;;;4274452;29;656538;-85
2021/03/28 11:11:31;;;;;;;10.33;4.73;;;9.20;91.60;;;;;;4244616;29;656318;-85
2021/03/28 11:15:16;;;;;;;9.13;4.80;;;9.80;90.20;;;;;;4256667;29;656397;-85
2021/03/28 11:18:45;;;;;;;9.82;4.93;;;9.80;89.20;;;;;;4227629;29;656409;-85
2021/03/28 11:21:33;;;;;;;10.47;4.63;;;9.70;86.20;;;;;;4330705;29;655300;-85
2021/03/28 11:24:29;;;;;;;10.13;4.87;;;9.90;86.40;;;;;;4187889;29;656483;-85
2021/03/28 11:27:41;;;;;;;9.00;3.93;;;10.30;84.50;;;;;;4177031;29;656529;-85
2021/03/28 11:30:36;;;;;;;5.47;2.77;;;11.00;81.60;;;;;;4196328;29;657495;-85
2021/03/28 11:33:27;;;;;;;6.90;3.40;;;11.40;78.40;;;;;;4227670;29;656441;-85
2021/03/28 11:36:23;;;;;;;7.40;3.30;;;11.20;76.00;;;;;;4246326;29;657695;-85
2021/03/28 11:39:15;;;;;;;6.30;3.30;;;11.50;77.90;;;;;;4230861;29;657101;-86
2021/03/28 11:42:23;;;;;;;7.77;3.03;;;11.60;75.70;;;;;;4248864;29;657255;-85
2021/03/28 11:45:36;;;;;;;10.17;3.20;;;11.20;72.30;;;;;;4239085;29;657393;-85
2021/03/28 11:48:28;;;;;;;8.37;3.70;;;10.30;72.00;;;;;;4284690;29;658151;-84
2021/03/28 11:51:21;;;;;;;6.67;3.67;;;10.00;74.40;;;;;;4305242;29;656738;-84
2021/03/28 11:54:17;;;;;;;7.83;3.50;;;9.90;76.70;;;;;;4302507;28;656752;-84
2021/03/28 11:57:16;;;;;;;6.70;3.40;;;9.80;75.80;;;;;;4357097;28;655600;-85
2021/03/28 12:00:24;;;;;;;9.97;3.40;;;9.80;76.70;;;;;;4430614;28;655752;-84
2021/03/28 12:03:36;;;;;;;8.03;3.30;;;10.20;73.80;;;;;;4430342;28;656298;-85
2021/03/28 12:06:48;;;;;;;9.27;3.30;;;10.90;75.80;;;;;;4417408;28;656296;-85
2021/03/28 12:09:36;;;;;;;6.27;3.33;;;11.60;73.60;;;;;;4401255;28;656694;-85
2021/03/28 12:12:26;;;;;;;11.40;3.60;;;11.30;69.60;;;;;;4427017;28;656403;-84
2021/03/28 12:16:00;;;;;;;5.70;3.10;;;11.50;70.10;;;;;;4416321;28;657623;-85
2021/03/28 12:18:52;;;;;;;6.50;2.87;;;12.10;72.90;;;;;;4391022;28;656511;-85
2021/03/28 12:22:00;;;;;;;6.07;2.90;;;12.50;68.70;;;;;;4335189;28;657121;-85
2021/03/28 12:24:56;;;;;;;10.60;3.20;;;11.80;65.90;;;;;;4351512;28;656612;-84
2021/03/28 12:27:45;;;;;;;8.53;3.40;;;12.00;66.20;;;;;;4342288;28;657902;-85
2021/03/28 12:30:35;;;;;;;6.37;3.27;;;12.40;64.90;;;;;;4345415;28;656621;-85
2021/03/28 12:33:23;;;;;;;5.50;3.17;;;12.60;64.30;;;;;;4346984;28;656710;-84
2021/03/28 12:36:10;;;;;;;8.00;3.17;;;12.50;64.50;;;;;;4363533;28;657053;-84
2021/03/28 12:39:08;;;;;;;5.63;2.80;;;12.40;61.20;;;;;;4341400;28;657707;-85
2021/03/28 12:42:17;;;;;;;5.20;3.20;;;11.90;61.40;;;;;;4339192;28;656421;-84
2021/03/28 12:45:33;;;;;;;5.90;3.20;;;11.60;62.10;;;;;;4341353;28;656734;-85
2021/03/28 12:48:32;;;;;;;8.40;3.17;;;11.40;63.70;;;;;;4324036;28;657049;-84
2021/03/28 12:51:22;;;;;;;10.20;3.40;;;11.70;64.30;;;;;;4341295;28;657029;-84
2021/03/28 12:54:15;;;;;;;10.53;4.20;;;11.80;64.40;;;;;;4336735;28;658022;-85
2021/03/28 12:57:05;;;;;;;8.23;3.53;;;11.60;65.30;;;;;;4385227;28;657177;-85
2021/03/28 12:59:55;;;;;;;9.13;3.43;;;11.50;64.90;;;;;;4420994;28;656363;-84
2021/03/28 13:02:42;;;;;;;8.87;3.57;;;11.20;62.40;;;;;;4437399;28;657044;-84
2021/03/28 13:05:30;;;;;;;9.83;3.53;;;10.70;63.10;;;;;;4404720;28;656780;-84
2021/03/28 13:08:19;;;;;;;7.50;3.60;;;10.50;66.00;;;;;;4382801;28;656797;-85
2021/03/28 13:11:06;;;;;;;10.53;3.40;;;10.60;64.70;;;;;;4395380;28;656573;-84
2021/03/28 13:13:53;;;;;;;9.53;3.80;;;10.50;63.40;;;;;;4412513;28;657734;-85
2021/03/28 13:16:54;;;;;;;5.83;3.20;;;10.60;64.70;;;;;;4435545;28;656975;-85
2021/03/28 13:19:42;;;;;;;9.97;3.23;;;10.70;64.10;;;;;;4432658;28;656337;-84
2021/03/28 13:22:35;;;;;;;10.70;3.50;;;10.80;65.70;;;;;;4433254;28;656776;-85
2021/03/28 13:25:29;;;;;;;11.23;3.63;;;11.10;63.30;;;;;;4400587;28;657661;-85
2021/03/28 13:28:24;;;;;;;8.63;3.37;;;11.20;65.30;;;;;;4413930;28;658306;-84
2021/03/28 13:31:37;;;;;;;7.47;2.93;;;11.20;63.40;;;;;;4396715;28;656429;-83
2021/03/28 13:34:33;;;;;;;9.97;3.13;;;11.00;63.70;;;;;;4405121;28;656533;-85
2021/03/28 13:37:41;;;;;;;8.37;2.83;;;11.00;63.60;;;;;;4405066;28;657394;-85
2021/03/28 13:40:29;;;;;;;8.43;3.60;;;11.10;61.70;;;;;;4395991;28;656483;-84
2021/03/28 13:43:18;;;;;;;7.63;2.83;;;11.00;61.50;;;;;;4427756;28;656678;-84
2021/03/28 13:46:10;;;;;;;7.67;3.03;;;11.00;61.20;;;;;;4415869;28;656867;-84
2021/03/28 13:49:02;;;;;;;10.77;2.97;;;10.90;59.60;;;;;;4394316;28;657334;-84
2021/03/28 13:52:14;;;;;;;7.53;2.97;;;10.90;60.30;;;;;;4394228;28;657839;-88
2021/03/28 13:55:09;;;;;;;8.17;2.50;;;10.90;59.90;;;;;;4419947;28;656474;-86
2021/03/28 13:57:56;;;;;;;7.53;2.87;;;11.30;60.40;;;;;;4433113;28;657370;-91
2021/03/28 14:00:43;;;;;;;6.50;2.15;;;11.60;60.20;;;;;;4432936;28;656610;-89
2021/03/28 14:03:32;;;;;;;6.87;2.27;;;11.50;56.60;;;;;;4454896;28;657380;-88
2021/03/28 14:06:25;;;;;;;5.88;2.08;;;11.80;55.10;;;;;;4432141;28;657154;-86
2021/03/28 14:09:18;;;;;;;7.20;2.13;;;11.20;56.20;;;;;;4418563;28;657250;-88
2021/03/28 14:12:08;;;;;;;5.30;2.47;;;11.30;58.10;;;;;;4417098;28;657512;-88
2021/03/28 14:15:05;;;;;;;5.23;2.23;;;11.70;57.20;;;;;;4403628;28;657467;-91
2021/03/28 14:17:57;;;;;;;9.40;2.67;;;12.00;56.60;;;;;;4411086;28;656411;-87
2021/03/28 14:20:45;;;;;;;5.00;2.17;;;11.70;56.50;;;;;;4413489;28;657142;-86
2021/03/28 14:23:32;;;;;;;6.17;2.40;;;11.50;56.20;;;;;;4395934;28;656717;-86
2021/03/28 14:26:26;;;;;;;7.63;2.83;;;11.60;56.00;;;;;;4432864;28;657058;-86
2021/03/28 14:29:35;;;;;;;6.60;2.97;;;11.40;56.30;;;;;;4402101;28;658506;-85
2021/03/28 14:32:26;;;;;;;9.03;3.23;;;10.90;57.30;;;;;;4389492;28;658088;-85
2021/03/28 14:35:40;;;;;;;7.07;3.03;;;10.80;57.30;;;;;;4410223;28;656727;-85
2021/03/28 14:38:43;;;;;;;5.30;2.53;;;10.90;56.80;;;;;;4377572;28;657294;-85
2021/03/28 14:41:42;;;;;;;12.07;3.33;;;10.90;58.20;;;;;;4395664;28;657081;-85
2021/03/28 14:45:01;;;;;;;8.80;2.93;;;11.20;57.60;;;;;;4393993;28;657584;-86
2021/03/28 14:48:12;;;;;;;9.23;3.50;;;11.20;56.60;;;;;;4397176;28;657448;-85
2021/03/28 14:51:03;;;;;;;12.77;3.57;;;10.80;57.30;;;;;;4408768;28;657055;-85
2021/03/28 14:53:55;;;;;;;11.23;3.40;;;10.30;57.20;;;;;;4430468;28;658434;-85
2021/03/28 14:56:45;;;;;;;8.77;3.13;;;10.10;58.50;;;;;;4449346;28;657632;-85
2021/03/28 14:59:52;;;;;;;8.67;3.60;;;10.10;59.40;;;;;;4407447;28;656536;-85
2021/03/28 15:03:03;;;;;;;11.90;3.77;;;10.00;58.70;;;;;;4395844;28;656737;-85
2021/03/28 15:06:14;;;;;;;8.27;3.27;;;10.60;59.30;;;;;;4343931;28;658073;-85
2021/03/28 15:09:03;;;;;;;6.77;3.20;;;10.60;57.10;;;;;;4359795;28;656623;-85
2021/03/28 15:11:52;;;;;;;10.27;3.20;;;11.10;57.00;;;;;;4353386;28;657929;-84
2021/03/28 15:14:43;;;;;;;10.63;3.80;;;11.70;58.20;;;;;;4340447;28;657998;-85
2021/03/28 15:17:36;;;;;;;9.43;3.35;;;12.50;56.40;;;;;;4354927;28;658422;-85
2021/03/28 15:20:31;;;;;;;6.73;2.80;;;13.00;55.70;;;;;;4359854;28;657104;-85
2021/03/28 15:23:20;;;;;;;10.40;4.00;;;14.80;52.80;;;;;;4356924;28;656472;-85
2021/03/28 15:26:27;;;;;;;9.63;3.47;;;16.50;51.30;;;;;;4347942;28;657857;-84
2021/03/28 15:29:18;;;;;;;11.70;3.73;;;16.90;48.40;;;;;;4354744;28;656547;-84
2021/03/28 15:32:29;;;;;;;11.57;3.67;;;16.10;47.00;;;;;;4353379;28;658262;-84
2021/03/28 15:35:28;;;;;;;9.20;3.67;;;14.10;49.90;;;;;;4357939;28;657596;-85
2021/03/28 15:38:38;;;;;;;10.30;3.80;;;12.50;53.10;;;;;;4349084;28;657364;-84